sensor_id;sensor_type;location;lat;lon;timestamp;temperature;humidity
8611;DHT22;4343;53.648;10.098;2023-07-22T00:02:11;14.70;99.90
8611;DHT22;4343;53.648;10.098;2023-07-22T00:04:36;14.60;99.90
8611;DHT22;4343;53.648;10.098;2023-07-22T00:07:03;14.60;99.90
8611;DHT22;4343;53.648;10.098;2023-07-22T00:09:29;14.60;99.90
8611;DHT22;4343;53.648;10.098;2023-07-22T00:11:54;14.60;99.90
8611;DHT22;4343;53.648;10.098;2023-07-22T00:14:20;14.60;99.90
8611;DHT22;4343;53.648;10.098;2023-07-22T00:16:45;14.60;99.90
8611;DHT22;4343;53.648;10.098;2023-07-22T00:19:11;14.60;99.90
8611;DHT22;4343;53.648;10.098;2023-07-22T00:21:36;14.60;99.90
8611;DHT22;4343;53.648;10.098;2023-07-22T00:24:02;14.60;99.90
8611;DHT22;4343;53.648;10.098;2023-07-22T00:26:27;14.50;99.90
8611;DHT22;4343;53.648;10.098;2023-07-22T00:28:53;14.50;99.90
8611;DHT22;4343;53.648;10.098;2023-07-22T00:31:18;14.50;99.90
8611;DHT22;4343;53.648;10.098;2023-07-22T00:33:44;14.50;99.90
8611;DHT22;4343;53.648;10.098;2023-07-22T00:36:10;14.50;99.90
8611;DHT22;4343;53.648;10.098;2023-07-22T00:38:35;14.40;99.90
8611;DHT22;4343;53.648;10.098;2023-07-22T00:41:00;14.40;99.90
8611;DHT22;4343;53.648;10.098;2023-07-22T00:43:30;14.40;99.90
8611;DHT22;4343;53.648;10.098;2023-07-22T00:45:55;14.40;99.90
8611;DHT22;4343;53.648;10.098;2023-07-22T00:48:21;14.40;99.90
8611;DHT22;4343;53.648;10.098;2023-07-22T00:50:47;14.40;99.90
8611;DHT22;4343;53.648;10.098;2023-07-22T00:53:12;14.40;99.90
8611;DHT22;4343;53.648;10.098;2023-07-22T00:55:39;14.40;99.90
8611;DHT22;4343;53.648;10.098;2023-07-22T00:58:06;14.40;99.90
8611;DHT22;4343;53.648;10.098;2023-07-22T01:00:32;14.30;99.90
8611;DHT22;4343;53.648;10.098;2023-07-22T01:02:58;14.30;99.90
8611;DHT22;4343;53.648;10.098;2023-07-22T01:05:25;14.40;99.90
8611;DHT22;4343;53.648;10.098;2023-07-22T01:07:52;14.30;99.90
8611;DHT22;4343;53.648;10.098;2023-07-22T01:10:18;14.30;99.90
8611;DHT22;4343;53.648;10.098;2023-07-22T01:12:44;14.30;99.90
8611;DHT22;4343;53.648;10.098;2023-07-22T01:15:10;14.30;99.90
8611;DHT22;4343;53.648;10.098;2023-07-22T01:17:37;14.30;99.90
8611;DHT22;4343;53.648;10.098;2023-07-22T01:20:04;14.20;99.90
8611;DHT22;4343;53.648;10.098;2023-07-22T01:22:31;14.20;99.90
8611;DHT22;4343;53.648;10.098;2023-07-22T01:24:58;14.20;99.90
8611;DHT22;4343;53.648;10.098;2023-07-22T01:27:23;14.20;99.90
8611;DHT22;4343;53.648;10.098;2023-07-22T01:29:53;14.20;99.90
8611;DHT22;4343;53.648;10.098;2023-07-22T01:32:19;14.20;99.90
8611;DHT22;4343;53.648;10.098;2023-07-22T01:34:45;14.20;99.90
8611;DHT22;4343;53.648;10.098;2023-07-22T01:37:11;14.20;99.90
8611;DHT22;4343;53.648;10.098;2023-07-22T01:39:36;14.10;99.90
8611;DHT22;4343;53.648;10.098;2023-07-22T01:42:02;14.10;99.90
8611;DHT22;4343;53.648;10.098;2023-07-22T01:44:28;14.10;99.90
8611;DHT22;4343;53.648;10.098;2023-07-22T01:46:54;14.10;99.90
8611;DHT22;4343;53.648;10.098;2023-07-22T01:49:19;14.10;99.90
8611;DHT22;4343;53.648;10.098;2023-07-22T01:51:45;14.10;99.90
8611;DHT22;4343;53.648;10.098;2023-07-22T01:54:11;14.10;99.90
8611;DHT22;4343;53.648;10.098;2023-07-22T01:56:38;14.10;99.90
8611;DHT22;4343;53.648;10.098;2023-07-22T01:59:04;14.00;99.90
8611;DHT22;4343;53.648;10.098;2023-07-22T02:01:29;14.00;99.90
8611;DHT22;4343;53.648;10.098;2023-07-22T02:03:55;14.00;99.90
8611;DHT22;4343;53.648;10.098;2023-07-22T02:06:21;14.00;99.90
8611;DHT22;4343;53.648;10.098;2023-07-22T02:08:46;14.00;99.90
8611;DHT22;4343;53.648;10.098;2023-07-22T02:11:12;14.00;99.90
8611;DHT22;4343;53.648;10.098;2023-07-22T02:13:38;14.00;99.90
8611;DHT22;4343;53.648;10.098;2023-07-22T02:16:04;14.00;99.90
8611;DHT22;4343;53.648;10.098;2023-07-22T02:18:30;14.00;99.90
8611;DHT22;4343;53.648;10.098;2023-07-22T02:20:56;14.00;99.90
8611;DHT22;4343;53.648;10.098;2023-07-22T02:23:22;13.90;99.90
8611;DHT22;4343;53.648;10.098;2023-07-22T02:25:49;13.90;99.90
8611;DHT22;4343;53.648;10.098;2023-07-22T02:28:15;13.90;99.90
8611;DHT22;4343;53.648;10.098;2023-07-22T02:30:41;13.90;99.90
8611;DHT22;4343;53.648;10.098;2023-07-22T02:33:08;13.90;99.90
8611;DHT22;4343;53.648;10.098;2023-07-22T02:35:33;13.90;99.90
8611;DHT22;4343;53.648;10.098;2023-07-22T02:37:59;13.80;99.90
8611;DHT22;4343;53.648;10.098;2023-07-22T02:40:25;13.80;99.90
8611;DHT22;4343;53.648;10.098;2023-07-22T02:42:50;13.80;99.90
8611;DHT22;4343;53.648;10.098;2023-07-22T02:45:16;13.80;99.90
8611;DHT22;4343;53.648;10.098;2023-07-22T02:47:41;13.80;99.90
8611;DHT22;4343;53.648;10.098;2023-07-22T02:50:08;13.80;99.90
8611;DHT22;4343;53.648;10.098;2023-07-22T02:52:34;13.80;99.90
8611;DHT22;4343;53.648;10.098;2023-07-22T02:55:08;13.70;99.90
8611;DHT22;4343;53.648;10.098;2023-07-22T02:57:37;13.70;99.90
8611;DHT22;4343;53.648;10.098;2023-07-22T03:00:03;13.70;99.90
8611;DHT22;4343;53.648;10.098;2023-07-22T03:02:39;13.70;99.90
8611;DHT22;4343;53.648;10.098;2023-07-22T03:05:06;13.70;99.90
8611;DHT22;4343;53.648;10.098;2023-07-22T03:07:34;13.70;99.90
8611;DHT22;4343;53.648;10.098;2023-07-22T03:10:00;13.70;99.90
8611;DHT22;4343;53.648;10.098;2023-07-22T03:12:26;13.60;99.90
8611;DHT22;4343;53.648;10.098;2023-07-22T03:14:52;13.60;99.90
8611;DHT22;4343;53.648;10.098;2023-07-22T03:17:18;13.60;99.90
8611;DHT22;4343;53.648;10.098;2023-07-22T03:19:44;13.60;99.90
8611;DHT22;4343;53.648;10.098;2023-07-22T03:22:10;13.60;99.90
8611;DHT22;4343;53.648;10.098;2023-07-22T03:24:36;13.60;99.90
8611;DHT22;4343;53.648;10.098;2023-07-22T03:27:02;13.60;99.90
8611;DHT22;4343;53.648;10.098;2023-07-22T03:29:27;13.50;99.90
8611;DHT22;4343;53.648;10.098;2023-07-22T03:31:53;13.50;99.90
8611;DHT22;4343;53.648;10.098;2023-07-22T03:34:18;13.60;99.90
8611;DHT22;4343;53.648;10.098;2023-07-22T03:36:45;13.50;99.90
8611;DHT22;4343;53.648;10.098;2023-07-22T03:39:11;13.50;99.90
8611;DHT22;4343;53.648;10.098;2023-07-22T03:41:37;13.50;99.90
8611;DHT22;4343;53.648;10.098;2023-07-22T03:44:02;13.50;99.90
8611;DHT22;4343;53.648;10.098;2023-07-22T03:46:28;13.50;99.90
8611;DHT22;4343;53.648;10.098;2023-07-22T03:48:53;13.50;99.90
8611;DHT22;4343;53.648;10.098;2023-07-22T03:51:19;13.40;99.90
8611;DHT22;4343;53.648;10.098;2023-07-22T03:53:45;13.40;99.90
8611;DHT22;4343;53.648;10.098;2023-07-22T03:56:10;13.40;99.90
8611;DHT22;4343;53.648;10.098;2023-07-22T03:58:36;13.40;99.90
8611;DHT22;4343;53.648;10.098;2023-07-22T04:01:01;13.40;99.90
8611;DHT22;4343;53.648;10.098;2023-07-22T04:03:27;13.40;99.90
8611;DHT22;4343;53.648;10.098;2023-07-22T04:05:56;13.40;99.90
8611;DHT22;4343;53.648;10.098;2023-07-22T04:08:22;13.40;99.90
8611;DHT22;4343;53.648;10.098;2023-07-22T04:10:52;13.40;99.90
8611;DHT22;4343;53.648;10.098;2023-07-22T04:13:18;13.40;99.90
8611;DHT22;4343;53.648;10.098;2023-07-22T04:15:43;13.40;99.90
8611;DHT22;4343;53.648;10.098;2023-07-22T04:18:09;13.40;99.90
8611;DHT22;4343;53.648;10.098;2023-07-22T04:20:35;13.40;99.90
8611;DHT22;4343;53.648;10.098;2023-07-22T04:23:00;13.50;99.90
8611;DHT22;4343;53.648;10.098;2023-07-22T04:25:26;13.50;99.90
8611;DHT22;4343;53.648;10.098;2023-07-22T04:27:51;13.50;99.90
8611;DHT22;4343;53.648;10.098;2023-07-22T04:30:17;13.50;99.90
8611;DHT22;4343;53.648;10.098;2023-07-22T04:32:50;13.50;99.90
8611;DHT22;4343;53.648;10.098;2023-07-22T04:35:16;13.50;99.90
8611;DHT22;4343;53.648;10.098;2023-07-22T04:37:44;13.50;99.90
8611;DHT22;4343;53.648;10.098;2023-07-22T04:40:13;13.50;99.90
8611;DHT22;4343;53.648;10.098;2023-07-22T04:42:40;13.50;99.90
8611;DHT22;4343;53.648;10.098;2023-07-22T04:45:07;13.50;99.90
8611;DHT22;4343;53.648;10.098;2023-07-22T04:47:33;13.60;99.90
8611;DHT22;4343;53.648;10.098;2023-07-22T04:49:59;13.60;99.90
8611;DHT22;4343;53.648;10.098;2023-07-22T04:52:25;13.60;99.90
8611;DHT22;4343;53.648;10.098;2023-07-22T04:54:50;13.70;99.90
8611;DHT22;4343;53.648;10.098;2023-07-22T04:57:16;13.70;99.90
8611;DHT22;4343;53.648;10.098;2023-07-22T04:59:42;13.70;99.90
8611;DHT22;4343;53.648;10.098;2023-07-22T05:02:08;13.80;99.90
8611;DHT22;4343;53.648;10.098;2023-07-22T05:04:33;13.80;99.90
8611;DHT22;4343;53.648;10.098;2023-07-22T05:07:00;13.80;99.90
8611;DHT22;4343;53.648;10.098;2023-07-22T05:09:25;13.90;99.90
8611;DHT22;4343;53.648;10.098;2023-07-22T05:11:51;13.90;99.90
8611;DHT22;4343;53.648;10.098;2023-07-22T05:14:16;13.90;99.90
8611;DHT22;4343;53.648;10.098;2023-07-22T05:16:42;13.90;99.90
8611;DHT22;4343;53.648;10.098;2023-07-22T05:19:07;14.00;99.90
8611;DHT22;4343;53.648;10.098;2023-07-22T05:21:33;14.00;99.90
8611;DHT22;4343;53.648;10.098;2023-07-22T05:23:59;14.00;99.90
8611;DHT22;4343;53.648;10.098;2023-07-22T05:26:24;14.00;99.90
8611;DHT22;4343;53.648;10.098;2023-07-22T05:28:50;14.10;99.90
8611;DHT22;4343;53.648;10.098;2023-07-22T05:31:16;14.10;99.90
8611;DHT22;4343;53.648;10.098;2023-07-22T05:33:41;14.20;99.90
8611;DHT22;4343;53.648;10.098;2023-07-22T05:36:07;14.20;99.90
8611;DHT22;4343;53.648;10.098;2023-07-22T05:38:33;14.20;99.90
8611;DHT22;4343;53.648;10.098;2023-07-22T05:40:58;14.20;99.90
8611;DHT22;4343;53.648;10.098;2023-07-22T05:43:24;14.30;99.90
8611;DHT22;4343;53.648;10.098;2023-07-22T05:45:50;14.30;99.90
8611;DHT22;4343;53.648;10.098;2023-07-22T05:48:16;14.30;99.90
8611;DHT22;4343;53.648;10.098;2023-07-22T05:50:41;14.40;99.90
8611;DHT22;4343;53.648;10.098;2023-07-22T05:53:07;14.40;99.90
8611;DHT22;4343;53.648;10.098;2023-07-22T05:55:33;14.40;99.90
8611;DHT22;4343;53.648;10.098;2023-07-22T05:57:58;14.40;99.90
8611;DHT22;4343;53.648;10.098;2023-07-22T06:00:25;14.50;99.90
8611;DHT22;4343;53.648;10.098;2023-07-22T06:02:50;14.50;99.90
8611;DHT22;4343;53.648;10.098;2023-07-22T06:05:16;14.60;99.90
8611;DHT22;4343;53.648;10.098;2023-07-22T06:07:41;14.70;99.90
8611;DHT22;4343;53.648;10.098;2023-07-22T06:10:07;14.80;99.90
8611;DHT22;4343;53.648;10.098;2023-07-22T06:12:34;15.00;99.90
8611;DHT22;4343;53.648;10.098;2023-07-22T06:15:00;15.10;99.90
8611;DHT22;4343;53.648;10.098;2023-07-22T06:17:26;15.20;99.90
8611;DHT22;4343;53.648;10.098;2023-07-22T06:19:51;15.30;99.90
8611;DHT22;4343;53.648;10.098;2023-07-22T06:22:17;15.30;99.90
8611;DHT22;4343;53.648;10.098;2023-07-22T06:24:42;15.40;99.90
8611;DHT22;4343;53.648;10.098;2023-07-22T06:27:08;15.50;99.90
8611;DHT22;4343;53.648;10.098;2023-07-22T06:29:33;15.70;99.90
8611;DHT22;4343;53.648;10.098;2023-07-22T06:31:59;15.90;99.90
8611;DHT22;4343;53.648;10.098;2023-07-22T06:34:24;16.00;99.90
8611;DHT22;4343;53.648;10.098;2023-07-22T06:36:50;16.20;99.90
8611;DHT22;4343;53.648;10.098;2023-07-22T06:39:15;16.30;99.90
8611;DHT22;4343;53.648;10.098;2023-07-22T06:41:41;16.40;99.90
8611;DHT22;4343;53.648;10.098;2023-07-22T06:44:06;16.60;99.90
8611;DHT22;4343;53.648;10.098;2023-07-22T06:46:32;16.70;99.90
8611;DHT22;4343;53.648;10.098;2023-07-22T06:48:57;16.70;99.90
8611;DHT22;4343;53.648;10.098;2023-07-22T06:51:23;16.70;99.90
8611;DHT22;4343;53.648;10.098;2023-07-22T06:53:48;16.90;99.90
8611;DHT22;4343;53.648;10.098;2023-07-22T06:56:14;17.00;99.90
8611;DHT22;4343;53.648;10.098;2023-07-22T06:58:39;17.00;99.90
8611;DHT22;4343;53.648;10.098;2023-07-22T07:01:05;17.10;99.90
8611;DHT22;4343;53.648;10.098;2023-07-22T07:03:30;17.20;99.90
8611;DHT22;4343;53.648;10.098;2023-07-22T07:05:56;17.30;99.90
8611;DHT22;4343;53.648;10.098;2023-07-22T07:08:22;17.40;99.90
8611;DHT22;4343;53.648;10.098;2023-07-22T07:10:49;17.60;99.90
8611;DHT22;4343;53.648;10.098;2023-07-22T07:13:15;17.70;99.90
8611;DHT22;4343;53.648;10.098;2023-07-22T07:15:40;17.90;99.90
8611;DHT22;4343;53.648;10.098;2023-07-22T07:18:06;18.00;99.90
8611;DHT22;4343;53.648;10.098;2023-07-22T07:20:32;18.10;99.90
8611;DHT22;4343;53.648;10.098;2023-07-22T07:22:57;18.30;99.90
8611;DHT22;4343;53.648;10.098;2023-07-22T07:25:23;18.40;99.90
8611;DHT22;4343;53.648;10.098;2023-07-22T07:27:48;18.40;99.90
8611;DHT22;4343;53.648;10.098;2023-07-22T07:30:14;18.40;99.90
8611;DHT22;4343;53.648;10.098;2023-07-22T07:32:39;18.40;99.90
8611;DHT22;4343;53.648;10.098;2023-07-22T07:35:06;18.50;99.90
8611;DHT22;4343;53.648;10.098;2023-07-22T07:37:32;18.50;99.90
8611;DHT22;4343;53.648;10.098;2023-07-22T07:39:57;18.50;99.90
8611;DHT22;4343;53.648;10.098;2023-07-22T07:42:28;18.50;99.90
8611;DHT22;4343;53.648;10.098;2023-07-22T07:44:54;18.50;99.90
8611;DHT22;4343;53.648;10.098;2023-07-22T07:47:20;18.40;99.90
8611;DHT22;4343;53.648;10.098;2023-07-22T07:49:45;18.40;99.90
8611;DHT22;4343;53.648;10.098;2023-07-22T07:52:11;18.40;99.90
8611;DHT22;4343;53.648;10.098;2023-07-22T07:54:37;18.40;99.90
8611;DHT22;4343;53.648;10.098;2023-07-22T07:57:02;18.50;99.90
8611;DHT22;4343;53.648;10.098;2023-07-22T07:59:28;18.60;99.90
8611;DHT22;4343;53.648;10.098;2023-07-22T08:01:53;18.60;99.90
8611;DHT22;4343;53.648;10.098;2023-07-22T08:04:19;18.70;99.90
8611;DHT22;4343;53.648;10.098;2023-07-22T08:06:44;18.80;99.90
8611;DHT22;4343;53.648;10.098;2023-07-22T08:09:10;18.80;99.90
8611;DHT22;4343;53.648;10.098;2023-07-22T08:11:37;18.80;99.90
8611;DHT22;4343;53.648;10.098;2023-07-22T08:14:03;18.70;99.90
8611;DHT22;4343;53.648;10.098;2023-07-22T08:16:31;18.70;99.90
8611;DHT22;4343;53.648;10.098;2023-07-22T08:18:56;18.80;99.90
8611;DHT22;4343;53.648;10.098;2023-07-22T08:21:22;18.80;99.90
8611;DHT22;4343;53.648;10.098;2023-07-22T08:23:47;18.90;99.90
8611;DHT22;4343;53.648;10.098;2023-07-22T08:26:13;19.00;99.90
8611;DHT22;4343;53.648;10.098;2023-07-22T08:28:38;19.00;99.90
8611;DHT22;4343;53.648;10.098;2023-07-22T08:31:04;19.00;99.90
8611;DHT22;4343;53.648;10.098;2023-07-22T08:33:30;19.00;99.90
8611;DHT22;4343;53.648;10.098;2023-07-22T08:35:56;19.10;99.90
8611;DHT22;4343;53.648;10.098;2023-07-22T08:38:21;19.10;99.90
8611;DHT22;4343;53.648;10.098;2023-07-22T08:40:50;19.10;99.90
8611;DHT22;4343;53.648;10.098;2023-07-22T08:43:19;19.20;99.90
8611;DHT22;4343;53.648;10.098;2023-07-22T08:45:47;19.40;99.90
8611;DHT22;4343;53.648;10.098;2023-07-22T08:48:15;19.50;99.90
8611;DHT22;4343;53.648;10.098;2023-07-22T08:50:53;19.60;99.90
8611;DHT22;4343;53.648;10.098;2023-07-22T08:53:19;19.60;99.90
8611;DHT22;4343;53.648;10.098;2023-07-22T08:55:46;19.70;99.90
8611;DHT22;4343;53.648;10.098;2023-07-22T08:58:13;19.80;99.90
8611;DHT22;4343;53.648;10.098;2023-07-22T09:00:40;19.80;99.90
8611;DHT22;4343;53.648;10.098;2023-07-22T09:03:06;19.70;99.90
8611;DHT22;4343;53.648;10.098;2023-07-22T09:05:33;19.70;99.90
8611;DHT22;4343;53.648;10.098;2023-07-22T09:07:59;19.60;99.90
8611;DHT22;4343;53.648;10.098;2023-07-22T09:10:27;19.50;99.90
8611;DHT22;4343;53.648;10.098;2023-07-22T09:12:54;19.50;99.90
8611;DHT22;4343;53.648;10.098;2023-07-22T09:15:20;19.60;99.90
8611;DHT22;4343;53.648;10.098;2023-07-22T09:17:46;19.60;99.90
8611;DHT22;4343;53.648;10.098;2023-07-22T09:20:13;19.60;99.90
8611;DHT22;4343;53.648;10.098;2023-07-22T09:22:46;19.60;99.90
8611;DHT22;4343;53.648;10.098;2023-07-22T09:25:17;19.70;99.90
8611;DHT22;4343;53.648;10.098;2023-07-22T09:27:43;19.80;99.90
8611;DHT22;4343;53.648;10.098;2023-07-22T09:32:56;20.00;99.90
8611;DHT22;4343;53.648;10.098;2023-07-22T09:35:24;20.10;99.90
8611;DHT22;4343;53.648;10.098;2023-07-22T09:37:50;20.20;99.90
8611;DHT22;4343;53.648;10.098;2023-07-22T09:40:18;20.30;99.90
8611;DHT22;4343;53.648;10.098;2023-07-22T09:42:49;20.40;99.90
8611;DHT22;4343;53.648;10.098;2023-07-22T09:45:15;20.50;99.90
8611;DHT22;4343;53.648;10.098;2023-07-22T09:47:45;20.60;99.90
8611;DHT22;4343;53.648;10.098;2023-07-22T09:50:13;20.80;99.90
8611;DHT22;4343;53.648;10.098;2023-07-22T09:52:48;20.90;99.90
8611;DHT22;4343;53.648;10.098;2023-07-22T09:55:19;21.00;99.90
8611;DHT22;4343;53.648;10.098;2023-07-22T09:57:50;21.00;99.90
8611;DHT22;4343;53.648;10.098;2023-07-22T10:00:17;21.10;99.90
8611;DHT22;4343;53.648;10.098;2023-07-22T10:02:45;21.10;99.90
8611;DHT22;4343;53.648;10.098;2023-07-22T10:05:17;21.20;99.90
8611;DHT22;4343;53.648;10.098;2023-07-22T10:07:46;21.20;99.90
8611;DHT22;4343;53.648;10.098;2023-07-22T10:10:13;21.20;99.90
8611;DHT22;4343;53.648;10.098;2023-07-22T10:12:40;21.30;99.90
8611;DHT22;4343;53.648;10.098;2023-07-22T10:15:08;21.40;99.90
8611;DHT22;4343;53.648;10.098;2023-07-22T10:17:34;21.50;99.90
8611;DHT22;4343;53.648;10.098;2023-07-22T10:20:00;21.60;99.90
8611;DHT22;4343;53.648;10.098;2023-07-22T10:22:30;21.70;99.90
8611;DHT22;4343;53.648;10.098;2023-07-22T10:24:56;21.70;99.90
8611;DHT22;4343;53.648;10.098;2023-07-22T10:27:22;21.80;99.90
8611;DHT22;4343;53.648;10.098;2023-07-22T10:29:49;21.80;99.90
8611;DHT22;4343;53.648;10.098;2023-07-22T10:32:14;21.80;99.90
8611;DHT22;4343;53.648;10.098;2023-07-22T10:34:42;21.80;99.90
8611;DHT22;4343;53.648;10.098;2023-07-22T10:37:09;21.80;99.90
8611;DHT22;4343;53.648;10.098;2023-07-22T10:39:36;21.80;99.90
8611;DHT22;4343;53.648;10.098;2023-07-22T10:42:05;21.90;99.90
8611;DHT22;4343;53.648;10.098;2023-07-22T10:44:32;22.00;99.90
8611;DHT22;4343;53.648;10.098;2023-07-22T10:46:58;22.10;99.90
8611;DHT22;4343;53.648;10.098;2023-07-22T10:49:28;22.20;99.90
8611;DHT22;4343;53.648;10.098;2023-07-22T10:52:07;22.30;99.90
8611;DHT22;4343;53.648;10.098;2023-07-22T10:54:34;22.40;99.90
8611;DHT22;4343;53.648;10.098;2023-07-22T10:57:23;22.50;99.90
8611;DHT22;4343;53.648;10.098;2023-07-22T10:59:51;22.50;99.90
8611;DHT22;4343;53.648;10.098;2023-07-22T11:02:28;22.60;99.90
8611;DHT22;4343;53.648;10.098;2023-07-22T11:04:58;22.70;99.90
8611;DHT22;4343;53.648;10.098;2023-07-22T11:07:32;22.70;99.40
8611;DHT22;4343;53.648;10.098;2023-07-22T11:09:58;22.70;99.40
8611;DHT22;4343;53.648;10.098;2023-07-22T11:12:24;22.90;99.90
8611;DHT22;4343;53.648;10.098;2023-07-22T11:14:51;22.90;99.50
8611;DHT22;4343;53.648;10.098;2023-07-22T11:17:27;22.80;99.10
8611;DHT22;4343;53.648;10.098;2023-07-22T11:19:54;22.80;99.50
8611;DHT22;4343;53.648;10.098;2023-07-22T11:22:20;22.80;99.80
8611;DHT22;4343;53.648;10.098;2023-07-22T11:24:45;22.70;99.50
8611;DHT22;4343;53.648;10.098;2023-07-22T11:27:12;22.70;99.30
8611;DHT22;4343;53.648;10.098;2023-07-22T11:29:37;22.60;99.10
8611;DHT22;4343;53.648;10.098;2023-07-22T11:32:03;22.50;99.40
8611;DHT22;4343;53.648;10.098;2023-07-22T11:34:29;22.40;99.40
8611;DHT22;4343;53.648;10.098;2023-07-22T11:36:56;22.30;99.50
8611;DHT22;4343;53.648;10.098;2023-07-22T11:39:24;22.20;99.60
8611;DHT22;4343;53.648;10.098;2023-07-22T11:41:50;22.20;99.70
8611;DHT22;4343;53.648;10.098;2023-07-22T11:44:18;22.20;99.90
8611;DHT22;4343;53.648;10.098;2023-07-22T11:49:33;22.30;99.90
8611;DHT22;4343;53.648;10.098;2023-07-22T11:52:00;22.30;99.90
8611;DHT22;4343;53.648;10.098;2023-07-22T11:54:26;22.30;99.90
8611;DHT22;4343;53.648;10.098;2023-07-22T11:56:52;22.40;99.90
8611;DHT22;4343;53.648;10.098;2023-07-22T11:59:32;22.50;99.90
8611;DHT22;4343;53.648;10.098;2023-07-22T12:02:00;22.60;99.90
8611;DHT22;4343;53.648;10.098;2023-07-22T12:04:26;22.80;99.90
8611;DHT22;4343;53.648;10.098;2023-07-22T12:06:51;23.00;99.90
8611;DHT22;4343;53.648;10.098;2023-07-22T12:09:17;23.20;99.70
8611;DHT22;4343;53.648;10.098;2023-07-22T12:11:42;23.20;99.00
8611;DHT22;4343;53.648;10.098;2023-07-22T12:14:12;23.30;99.10
8611;DHT22;4343;53.648;10.098;2023-07-22T12:16:40;23.20;98.30
8611;DHT22;4343;53.648;10.098;2023-07-22T12:19:06;23.20;98.40
8611;DHT22;4343;53.648;10.098;2023-07-22T12:21:32;23.30;98.90
8611;DHT22;4343;53.648;10.098;2023-07-22T12:23:58;23.30;98.60
8611;DHT22;4343;53.648;10.098;2023-07-22T12:26:24;23.30;98.70
8611;DHT22;4343;53.648;10.098;2023-07-22T12:28:50;23.30;98.70
8611;DHT22;4343;53.648;10.098;2023-07-22T12:31:16;23.20;98.50
8611;DHT22;4343;53.648;10.098;2023-07-22T12:33:41;23.20;98.50
8611;DHT22;4343;53.648;10.098;2023-07-22T12:36:07;23.10;98.60
8611;DHT22;4343;53.648;10.098;2023-07-22T12:38:33;22.90;98.60
8611;DHT22;4343;53.648;10.098;2023-07-22T12:40:58;22.80;98.50
8611;DHT22;4343;53.648;10.098;2023-07-22T12:43:24;22.70;98.70
8611;DHT22;4343;53.648;10.098;2023-07-22T12:45:49;22.50;98.70
8611;DHT22;4343;53.648;10.098;2023-07-22T12:48:16;22.40;99.00
8611;DHT22;4343;53.648;10.098;2023-07-22T12:50:42;22.20;99.40
8611;DHT22;4343;53.648;10.098;2023-07-22T12:53:08;22.10;99.50
8611;DHT22;4343;53.648;10.098;2023-07-22T12:55:34;22.00;99.70
8611;DHT22;4343;53.648;10.098;2023-07-22T12:57:59;21.80;99.90
8611;DHT22;4343;53.648;10.098;2023-07-22T13:00:25;21.60;99.90
8611;DHT22;4343;53.648;10.098;2023-07-22T13:02:51;21.30;99.90
8611;DHT22;4343;53.648;10.098;2023-07-22T13:05:16;21.20;99.90
8611;DHT22;4343;53.648;10.098;2023-07-22T13:07:42;21.10;99.90
8611;DHT22;4343;53.648;10.098;2023-07-22T13:10:07;20.90;99.90
8611;DHT22;4343;53.648;10.098;2023-07-22T13:12:36;20.80;99.90
8611;DHT22;4343;53.648;10.098;2023-07-22T13:15:02;20.70;99.90
8611;DHT22;4343;53.648;10.098;2023-07-22T13:17:28;20.50;99.90
8611;DHT22;4343;53.648;10.098;2023-07-22T13:19:53;20.40;99.90
8611;DHT22;4343;53.648;10.098;2023-07-22T13:22:19;20.30;99.90
8611;DHT22;4343;53.648;10.098;2023-07-22T13:24:44;20.30;99.90
8611;DHT22;4343;53.648;10.098;2023-07-22T13:27:10;20.20;99.90
8611;DHT22;4343;53.648;10.098;2023-07-22T13:29:35;20.20;99.90
8611;DHT22;4343;53.648;10.098;2023-07-22T13:32:01;20.10;99.90
8611;DHT22;4343;53.648;10.098;2023-07-22T13:34:26;20.10;99.90
8611;DHT22;4343;53.648;10.098;2023-07-22T13:36:52;20.00;99.90
8611;DHT22;4343;53.648;10.098;2023-07-22T13:39:17;20.00;99.90
8611;DHT22;4343;53.648;10.098;2023-07-22T13:41:44;20.00;99.90
8611;DHT22;4343;53.648;10.098;2023-07-22T13:44:09;20.00;99.90
8611;DHT22;4343;53.648;10.098;2023-07-22T13:46:35;20.00;99.90
8611;DHT22;4343;53.648;10.098;2023-07-22T13:49:00;20.00;99.90
8611;DHT22;4343;53.648;10.098;2023-07-22T13:51:26;20.00;99.90
8611;DHT22;4343;53.648;10.098;2023-07-22T13:53:51;19.90;99.90
8611;DHT22;4343;53.648;10.098;2023-07-22T13:56:20;19.90;99.90
8611;DHT22;4343;53.648;10.098;2023-07-22T13:58:46;19.80;99.90
8611;DHT22;4343;53.648;10.098;2023-07-22T14:01:12;19.80;99.90
8611;DHT22;4343;53.648;10.098;2023-07-22T14:03:38;19.70;99.90
8611;DHT22;4343;53.648;10.098;2023-07-22T14:06:04;19.70;99.90
8611;DHT22;4343;53.648;10.098;2023-07-22T14:08:29;19.60;99.90
8611;DHT22;4343;53.648;10.098;2023-07-22T14:10:55;19.60;99.90
8611;DHT22;4343;53.648;10.098;2023-07-22T14:13:20;19.60;99.90
8611;DHT22;4343;53.648;10.098;2023-07-22T14:15:46;19.60;99.90
8611;DHT22;4343;53.648;10.098;2023-07-22T14:18:11;19.60;99.90
8611;DHT22;4343;53.648;10.098;2023-07-22T14:20:45;19.60;99.90
8611;DHT22;4343;53.648;10.098;2023-07-22T14:23:11;19.60;99.90
8611;DHT22;4343;53.648;10.098;2023-07-22T14:25:36;19.60;99.90
8611;DHT22;4343;53.648;10.098;2023-07-22T14:28:02;19.60;99.90
8611;DHT22;4343;53.648;10.098;2023-07-22T14:30:27;19.60;99.90
8611;DHT22;4343;53.648;10.098;2023-07-22T14:32:53;19.60;99.90
8611;DHT22;4343;53.648;10.098;2023-07-22T14:35:19;19.70;99.90
8611;DHT22;4343;53.648;10.098;2023-07-22T14:37:44;19.70;99.90
8611;DHT22;4343;53.648;10.098;2023-07-22T14:40:11;19.70;99.90
8611;DHT22;4343;53.648;10.098;2023-07-22T14:42:37;19.80;99.90
8611;DHT22;4343;53.648;10.098;2023-07-22T14:45:03;19.80;99.90
8611;DHT22;4343;53.648;10.098;2023-07-22T14:47:29;19.80;99.90
8611;DHT22;4343;53.648;10.098;2023-07-22T14:49:54;19.90;99.90
8611;DHT22;4343;53.648;10.098;2023-07-22T14:52:20;19.90;99.90
8611;DHT22;4343;53.648;10.098;2023-07-22T14:54:45;19.90;99.90
8611;DHT22;4343;53.648;10.098;2023-07-22T14:57:11;19.90;99.90
8611;DHT22;4343;53.648;10.098;2023-07-22T14:59:36;19.90;99.90
8611;DHT22;4343;53.648;10.098;2023-07-22T15:02:02;19.90;99.90
8611;DHT22;4343;53.648;10.098;2023-07-22T15:04:27;19.80;99.90
8611;DHT22;4343;53.648;10.098;2023-07-22T15:06:53;19.80;99.90
8611;DHT22;4343;53.648;10.098;2023-07-22T15:09:18;19.70;99.90
8611;DHT22;4343;53.648;10.098;2023-07-22T15:11:45;19.60;99.90
8611;DHT22;4343;53.648;10.098;2023-07-22T15:14:11;19.60;99.90
8611;DHT22;4343;53.648;10.098;2023-07-22T15:16:37;19.60;99.90
8611;DHT22;4343;53.648;10.098;2023-07-22T15:19:02;19.50;99.90
8611;DHT22;4343;53.648;10.098;2023-07-22T15:21:28;19.40;99.90
8611;DHT22;4343;53.648;10.098;2023-07-22T15:23:54;19.40;99.90
8611;DHT22;4343;53.648;10.098;2023-07-22T15:26:19;19.30;99.90
8611;DHT22;4343;53.648;10.098;2023-07-22T15:28:45;19.30;99.90
8611;DHT22;4343;53.648;10.098;2023-07-22T15:31:12;19.30;99.90
8611;DHT22;4343;53.648;10.098;2023-07-22T15:33:37;19.20;99.90
8611;DHT22;4343;53.648;10.098;2023-07-22T15:36:03;19.20;99.90
8611;DHT22;4343;53.648;10.098;2023-07-22T15:38:29;19.20;99.90
8611;DHT22;4343;53.648;10.098;2023-07-22T15:40:56;19.10;99.90
8611;DHT22;4343;53.648;10.098;2023-07-22T15:43:22;19.10;99.90
8611;DHT22;4343;53.648;10.098;2023-07-22T15:45:47;19.00;99.90